sensor_id;sensor_type;location;lat;lon;timestamp;temperature;humidity
12817;DHT22;6473;51.552;6.716;2022-09-03T00:01:58;17.70;1.00
12817;DHT22;6473;51.552;6.716;2022-09-03T00:04:34;17.80;1.00
12817;DHT22;6473;51.552;6.716;2022-09-03T00:07:07;17.60;1.00
12817;DHT22;6473;51.552;6.716;2022-09-03T00:09:40;17.60;1.00
12817;DHT22;6473;51.552;6.716;2022-09-03T00:12:13;17.50;1.00
12817;DHT22;6473;51.552;6.716;2022-09-03T00:14:45;17.50;1.00
12817;DHT22;6473;51.552;6.716;2022-09-03T00:17:15;17.50;1.00
12817;DHT22;6473;51.552;6.716;2022-09-03T00:19:51;17.50;1.00
12817;DHT22;6473;51.552;6.716;2022-09-03T00:22:23;17.50;1.00
12817;DHT22;6473;51.552;6.716;2022-09-03T00:24:53;17.50;1.00
12817;DHT22;6473;51.552;6.716;2022-09-03T00:27:23;17.40;1.00
12817;DHT22;6473;51.552;6.716;2022-09-03T00:29:55;17.40;1.00
12817;DHT22;6473;51.552;6.716;2022-09-03T00:32:26;17.40;1.00
12817;DHT22;6473;51.552;6.716;2022-09-03T00:34:59;17.30;1.00
12817;DHT22;6473;51.552;6.716;2022-09-03T00:37:28;17.30;1.00
12817;DHT22;6473;51.552;6.716;2022-09-03T00:39:55;17.30;1.00
12817;DHT22;6473;51.552;6.716;2022-09-03T00:42:34;17.30;1.00
12817;DHT22;6473;51.552;6.716;2022-09-03T00:45:16;17.40;1.00
12817;DHT22;6473;51.552;6.716;2022-09-03T00:47:54;17.20;1.00
12817;DHT22;6473;51.552;6.716;2022-09-03T00:50:35;17.20;1.00
12817;DHT22;6473;51.552;6.716;2022-09-03T00:53:10;17.60;1.00
12817;DHT22;6473;51.552;6.716;2022-09-03T00:55:49;17.10;1.00
12817;DHT22;6473;51.552;6.716;2022-09-03T00:58:38;17.50;1.00
12817;DHT22;6473;51.552;6.716;2022-09-03T01:01:14;17.10;1.00
12817;DHT22;6473;51.552;6.716;2022-09-03T01:03:49;17.10;1.00
12817;DHT22;6473;51.552;6.716;2022-09-03T01:06:26;17.00;1.00
12817;DHT22;6473;51.552;6.716;2022-09-03T01:09:06;16.90;1.00
12817;DHT22;6473;51.552;6.716;2022-09-03T01:11:46;16.90;1.00
12817;DHT22;6473;51.552;6.716;2022-09-03T01:14:30;16.80;1.00
12817;DHT22;6473;51.552;6.716;2022-09-03T01:17:08;16.70;1.00
12817;DHT22;6473;51.552;6.716;2022-09-03T01:25:50;16.60;1.00
12817;DHT22;6473;51.552;6.716;2022-09-03T01:28:28;16.60;1.00
12817;DHT22;6473;51.552;6.716;2022-09-03T01:31:04;16.50;1.00
12817;DHT22;6473;51.552;6.716;2022-09-03T01:33:39;16.40;1.00
12817;DHT22;6473;51.552;6.716;2022-09-03T01:36:12;16.30;1.00
12817;DHT22;6473;51.552;6.716;2022-09-03T01:38:46;17.50;1.00
12817;DHT22;6473;51.552;6.716;2022-09-03T01:41:25;16.30;1.00
12817;DHT22;6473;51.552;6.716;2022-09-03T01:44:19;16.20;1.00
12817;DHT22;6473;51.552;6.716;2022-09-03T01:47:03;16.20;1.00
12817;DHT22;6473;51.552;6.716;2022-09-03T01:49:40;16.20;1.00
12817;DHT22;6473;51.552;6.716;2022-09-03T01:52:12;16.00;1.00
12817;DHT22;6473;51.552;6.716;2022-09-03T01:54:59;16.00;1.00
12817;DHT22;6473;51.552;6.716;2022-09-03T01:57:52;15.90;1.00
12817;DHT22;6473;51.552;6.716;2022-09-03T02:00:24;15.80;1.00
12817;DHT22;6473;51.552;6.716;2022-09-03T02:02:52;15.80;1.00
12817;DHT22;6473;51.552;6.716;2022-09-03T02:05:21;15.90;1.00
12817;DHT22;6473;51.552;6.716;2022-09-03T02:07:59;15.80;1.00
12817;DHT22;6473;51.552;6.716;2022-09-03T02:10:29;15.90;1.00
12817;DHT22;6473;51.552;6.716;2022-09-03T02:13:01;15.80;1.00
12817;DHT22;6473;51.552;6.716;2022-09-03T02:15:37;15.80;1.00
12817;DHT22;6473;51.552;6.716;2022-09-03T02:18:10;15.80;1.00
12817;DHT22;6473;51.552;6.716;2022-09-03T02:20:39;15.70;1.00
12817;DHT22;6473;51.552;6.716;2022-09-03T02:23:07;15.80;1.00
12817;DHT22;6473;51.552;6.716;2022-09-03T02:25:39;15.70;1.00
12817;DHT22;6473;51.552;6.716;2022-09-03T02:28:08;15.80;1.00
12817;DHT22;6473;51.552;6.716;2022-09-03T02:30:37;15.70;1.00
12817;DHT22;6473;51.552;6.716;2022-09-03T02:33:04;15.70;1.00
12817;DHT22;6473;51.552;6.716;2022-09-03T02:35:32;15.60;1.00
12817;DHT22;6473;51.552;6.716;2022-09-03T02:38:11;15.60;1.00
12817;DHT22;6473;51.552;6.716;2022-09-03T02:40:38;15.60;1.00
12817;DHT22;6473;51.552;6.716;2022-09-03T02:43:12;15.60;1.00
12817;DHT22;6473;51.552;6.716;2022-09-03T02:45:46;15.60;1.00
12817;DHT22;6473;51.552;6.716;2022-09-03T02:48:16;15.50;1.00
12817;DHT22;6473;51.552;6.716;2022-09-03T02:50:46;15.60;1.00
12817;DHT22;6473;51.552;6.716;2022-09-03T02:53:13;15.50;1.00
12817;DHT22;6473;51.552;6.716;2022-09-03T02:55:40;15.50;1.00
12817;DHT22;6473;51.552;6.716;2022-09-03T02:58:07;15.50;1.00
12817;DHT22;6473;51.552;6.716;2022-09-03T03:00:34;15.50;1.00
12817;DHT22;6473;51.552;6.716;2022-09-03T03:03:04;15.50;1.00
12817;DHT22;6473;51.552;6.716;2022-09-03T03:05:39;15.50;1.00
12817;DHT22;6473;51.552;6.716;2022-09-03T03:08:09;15.40;1.00
12817;DHT22;6473;51.552;6.716;2022-09-03T03:10:36;15.40;1.00
12817;DHT22;6473;51.552;6.716;2022-09-03T03:13:03;15.30;1.00
12817;DHT22;6473;51.552;6.716;2022-09-03T03:15:30;15.20;1.00
12817;DHT22;6473;51.552;6.716;2022-09-03T03:17:57;15.20;1.00
12817;DHT22;6473;51.552;6.716;2022-09-03T03:20:26;15.10;1.00
12817;DHT22;6473;51.552;6.716;2022-09-03T03:22:53;15.10;1.00
12817;DHT22;6473;51.552;6.716;2022-09-03T03:25:20;15.10;1.00
12817;DHT22;6473;51.552;6.716;2022-09-03T03:27:47;15.00;1.00
12817;DHT22;6473;51.552;6.716;2022-09-03T03:30:14;15.00;1.00
12817;DHT22;6473;51.552;6.716;2022-09-03T03:32:41;15.00;1.00
12817;DHT22;6473;51.552;6.716;2022-09-03T03:35:08;15.00;1.00
12817;DHT22;6473;51.552;6.716;2022-09-03T03:37:37;14.90;1.00
12817;DHT22;6473;51.552;6.716;2022-09-03T03:40:05;14.90;1.00
12817;DHT22;6473;51.552;6.716;2022-09-03T03:42:33;14.90;1.00
12817;DHT22;6473;51.552;6.716;2022-09-03T03:45:00;14.90;1.00
12817;DHT22;6473;51.552;6.716;2022-09-03T03:47:27;14.90;1.00
12817;DHT22;6473;51.552;6.716;2022-09-03T03:49:55;14.90;1.00
12817;DHT22;6473;51.552;6.716;2022-09-03T03:52:22;14.80;1.00
12817;DHT22;6473;51.552;6.716;2022-09-03T03:54:51;14.80;1.00
12817;DHT22;6473;51.552;6.716;2022-09-03T03:57:19;14.80;1.00
12817;DHT22;6473;51.552;6.716;2022-09-03T03:59:49;14.70;1.00
12817;DHT22;6473;51.552;6.716;2022-09-03T04:02:17;15.90;1.00
12817;DHT22;6473;51.552;6.716;2022-09-03T04:04:44;14.60;1.00
12817;DHT22;6473;51.552;6.716;2022-09-03T04:07:11;14.60;1.00
12817;DHT22;6473;51.552;6.716;2022-09-03T04:09:41;14.60;1.00
12817;DHT22;6473;51.552;6.716;2022-09-03T04:12:09;14.60;1.00
12817;DHT22;6473;51.552;6.716;2022-09-03T04:14:36;14.60;1.00
12817;DHT22;6473;51.552;6.716;2022-09-03T04:17:03;14.60;1.00
12817;DHT22;6473;51.552;6.716;2022-09-03T04:19:30;14.60;1.00
12817;DHT22;6473;51.552;6.716;2022-09-03T04:21:57;14.60;1.00
12817;DHT22;6473;51.552;6.716;2022-09-03T04:24:24;14.60;1.00
12817;DHT22;6473;51.552;6.716;2022-09-03T04:26:52;14.60;1.10
12817;DHT22;6473;51.552;6.716;2022-09-03T04:29:20;14.50;1.40
12817;DHT22;6473;51.552;6.716;2022-09-03T04:31:47;14.50;1.30
12817;DHT22;6473;51.552;6.716;2022-09-03T04:34:28;14.50;1.80
12817;DHT22;6473;51.552;6.716;2022-09-03T04:36:55;14.40;2.10
12817;DHT22;6473;51.552;6.716;2022-09-03T04:39:23;14.20;3.20
12817;DHT22;6473;51.552;6.716;2022-09-03T04:41:51;14.40;4.10
12817;DHT22;6473;51.552;6.716;2022-09-03T04:44:19;14.40;4.20
12817;DHT22;6473;51.552;6.716;2022-09-03T04:46:46;14.40;4.90
12817;DHT22;6473;51.552;6.716;2022-09-03T04:49:13;14.40;4.80
12817;DHT22;6473;51.552;6.716;2022-09-03T04:51:40;14.30;5.50
12817;DHT22;6473;51.552;6.716;2022-09-03T04:54:09;14.50;6.70
12817;DHT22;6473;51.552;6.716;2022-09-03T04:56:38;14.30;6.80
12817;DHT22;6473;51.552;6.716;2022-09-03T04:59:06;14.30;6.90
12817;DHT22;6473;51.552;6.716;2022-09-03T05:01:36;14.30;7.60
12817;DHT22;6473;51.552;6.716;2022-09-03T05:04:05;14.30;7.60
12817;DHT22;6473;51.552;6.716;2022-09-03T05:06:32;14.30;7.80
12817;DHT22;6473;51.552;6.716;2022-09-03T05:09:00;14.30;7.20
12817;DHT22;6473;51.552;6.716;2022-09-03T05:11:28;14.30;7.70
12817;DHT22;6473;51.552;6.716;2022-09-03T05:13:56;14.30;8.10
12817;DHT22;6473;51.552;6.716;2022-09-03T05:16:25;14.30;8.70
12817;DHT22;6473;51.552;6.716;2022-09-03T05:18:57;14.30;8.50
12817;DHT22;6473;51.552;6.716;2022-09-03T05:21:25;14.30;9.10
12817;DHT22;6473;51.552;6.716;2022-09-03T05:23:54;14.30;9.30
12817;DHT22;6473;51.552;6.716;2022-09-03T05:26:23;14.30;9.40
12817;DHT22;6473;51.552;6.716;2022-09-03T05:28:53;14.40;9.30
12817;DHT22;6473;51.552;6.716;2022-09-03T05:31:23;14.30;9.40
12817;DHT22;6473;51.552;6.716;2022-09-03T05:33:52;14.40;9.30
12817;DHT22;6473;51.552;6.716;2022-09-03T05:36:23;14.50;8.80
12817;DHT22;6473;51.552;6.716;2022-09-03T05:38:51;14.50;9.00
12817;DHT22;6473;51.552;6.716;2022-09-03T05:41:19;15.00;6.70
12817;DHT22;6473;51.552;6.716;2022-09-03T05:43:48;15.00;3.60
12817;DHT22;6473;51.552;6.716;2022-09-03T05:46:20;15.90;1.00
12817;DHT22;6473;51.552;6.716;2022-09-03T05:48:47;16.30;1.00
12817;DHT22;6473;51.552;6.716;2022-09-03T05:51:15;16.90;1.00
12817;DHT22;6473;51.552;6.716;2022-09-03T05:53:45;16.80;1.00
12817;DHT22;6473;51.552;6.716;2022-09-03T05:56:19;18.10;1.00
12817;DHT22;6473;51.552;6.716;2022-09-03T05:58:48;18.00;1.00
12817;DHT22;6473;51.552;6.716;2022-09-03T06:01:18;18.30;1.00
12817;DHT22;6473;51.552;6.716;2022-09-03T06:03:59;19.00;1.00
12817;DHT22;6473;51.552;6.716;2022-09-03T06:06:49;19.50;1.00
12817;DHT22;6473;51.552;6.716;2022-09-03T06:09:19;19.80;1.00
12817;DHT22;6473;51.552;6.716;2022-09-03T06:11:46;19.90;1.00
12817;DHT22;6473;51.552;6.716;2022-09-03T06:14:16;20.10;1.00
12817;DHT22;6473;51.552;6.716;2022-09-03T06:16:45;20.40;1.00
12817;DHT22;6473;51.552;6.716;2022-09-03T06:19:15;20.70;1.00
12817;DHT22;6473;51.552;6.716;2022-09-03T06:21:43;21.20;1.00
12817;DHT22;6473;51.552;6.716;2022-09-03T06:24:44;21.60;1.00
12817;DHT22;6473;51.552;6.716;2022-09-03T06:27:12;21.60;1.00
12817;DHT22;6473;51.552;6.716;2022-09-03T06:30:09;21.00;1.00
12817;DHT22;6473;51.552;6.716;2022-09-03T06:32:42;20.80;1.00
12817;DHT22;6473;51.552;6.716;2022-09-03T06:35:21;20.90;1.00
12817;DHT22;6473;51.552;6.716;2022-09-03T06:37:48;21.20;1.00
12817;DHT22;6473;51.552;6.716;2022-09-03T06:40:18;21.40;1.00
12817;DHT22;6473;51.552;6.716;2022-09-03T06:42:55;21.70;1.00
12817;DHT22;6473;51.552;6.716;2022-09-03T06:45:26;22.10;1.00
12817;DHT22;6473;51.552;6.716;2022-09-03T06:47:54;22.40;1.00
12817;DHT22;6473;51.552;6.716;2022-09-03T06:50:22;22.60;1.00
12817;DHT22;6473;51.552;6.716;2022-09-03T06:52:51;22.80;1.00
12817;DHT22;6473;51.552;6.716;2022-09-03T06:55:21;23.30;1.00
12817;DHT22;6473;51.552;6.716;2022-09-03T06:58:03;23.70;1.00
12817;DHT22;6473;51.552;6.716;2022-09-03T07:00:30;23.80;1.00
12817;DHT22;6473;51.552;6.716;2022-09-03T07:02:59;24.00;1.00
12817;DHT22;6473;51.552;6.716;2022-09-03T07:05:28;24.60;1.00
12817;DHT22;6473;51.552;6.716;2022-09-03T07:07:56;24.50;1.00
12817;DHT22;6473;51.552;6.716;2022-09-03T07:10:25;24.70;1.00
12817;DHT22;6473;51.552;6.716;2022-09-03T07:12:53;24.30;1.00
12817;DHT22;6473;51.552;6.716;2022-09-03T07:15:21;24.30;1.00
12817;DHT22;6473;51.552;6.716;2022-09-03T07:17:49;24.30;1.00
12817;DHT22;6473;51.552;6.716;2022-09-03T07:20:16;24.40;1.00
12817;DHT22;6473;51.552;6.716;2022-09-03T07:22:46;24.70;1.00
12817;DHT22;6473;51.552;6.716;2022-09-03T07:25:19;24.60;1.00
12817;DHT22;6473;51.552;6.716;2022-09-03T07:27:47;24.50;1.00
12817;DHT22;6473;51.552;6.716;2022-09-03T07:30:15;24.80;1.00
12817;DHT22;6473;51.552;6.716;2022-09-03T07:32:47;25.00;1.00
12817;DHT22;6473;51.552;6.716;2022-09-03T07:35:17;25.50;1.00
12817;DHT22;6473;51.552;6.716;2022-09-03T07:37:50;25.80;1.00
12817;DHT22;6473;51.552;6.716;2022-09-03T07:40:20;25.30;1.00
12817;DHT22;6473;51.552;6.716;2022-09-03T07:42:49;25.30;1.00
12817;DHT22;6473;51.552;6.716;2022-09-03T07:45:18;25.30;1.00
12817;DHT22;6473;51.552;6.716;2022-09-03T07:47:47;25.80;1.00
12817;DHT22;6473;51.552;6.716;2022-09-03T07:50:14;25.60;1.00
12817;DHT22;6473;51.552;6.716;2022-09-03T07:52:46;25.40;1.00
12817;DHT22;6473;51.552;6.716;2022-09-03T07:55:14;25.70;1.00
12817;DHT22;6473;51.552;6.716;2022-09-03T07:57:41;25.40;1.00
12817;DHT22;6473;51.552;6.716;2022-09-03T08:00:11;25.10;1.00
12817;DHT22;6473;51.552;6.716;2022-09-03T08:02:39;25.10;1.00
12817;DHT22;6473;51.552;6.716;2022-09-03T08:05:15;25.60;1.00
12817;DHT22;6473;51.552;6.716;2022-09-03T08:07:44;26.00;1.00
12817;DHT22;6473;51.552;6.716;2022-09-03T08:10:11;26.10;1.00
12817;DHT22;6473;51.552;6.716;2022-09-03T08:12:49;25.30;1.00
12817;DHT22;6473;51.552;6.716;2022-09-03T08:15:18;25.20;1.00
12817;DHT22;6473;51.552;6.716;2022-09-03T08:17:48;25.70;1.00
12817;DHT22;6473;51.552;6.716;2022-09-03T08:20:15;26.10;1.00
12817;DHT22;6473;51.552;6.716;2022-09-03T08:23:13;26.50;1.00
12817;DHT22;6473;51.552;6.716;2022-09-03T08:25:44;26.40;1.00
12817;DHT22;6473;51.552;6.716;2022-09-03T08:28:14;26.40;1.00
12817;DHT22;6473;51.552;6.716;2022-09-03T08:30:45;26.30;1.00
12817;DHT22;6473;51.552;6.716;2022-09-03T08:33:12;26.60;1.00
12817;DHT22;6473;51.552;6.716;2022-09-03T08:36:02;27.20;1.00
12817;DHT22;6473;51.552;6.716;2022-09-03T08:38:31;27.10;1.00
12817;DHT22;6473;51.552;6.716;2022-09-03T08:41:07;27.30;1.00
12817;DHT22;6473;51.552;6.716;2022-09-03T08:43:56;27.00;1.00
12817;DHT22;6473;51.552;6.716;2022-09-03T08:46:34;27.10;1.00
12817;DHT22;6473;51.552;6.716;2022-09-03T08:49:06;26.50;1.00
12817;DHT22;6473;51.552;6.716;2022-09-03T08:51:36;27.20;1.00
12817;DHT22;6473;51.552;6.716;2022-09-03T08:54:06;27.30;1.00
12817;DHT22;6473;51.552;6.716;2022-09-03T08:56:38;27.40;1.00
12817;DHT22;6473;51.552;6.716;2022-09-03T08:59:09;27.00;1.00
12817;DHT22;6473;51.552;6.716;2022-09-03T09:01:45;26.50;1.00
12817;DHT22;6473;51.552;6.716;2022-09-03T09:04:23;26.50;1.00
12817;DHT22;6473;51.552;6.716;2022-09-03T09:06:59;27.10;1.00
12817;DHT22;6473;51.552;6.716;2022-09-03T09:09:32;27.50;1.00
12817;DHT22;6473;51.552;6.716;2022-09-03T09:12:12;27.40;1.00
12817;DHT22;6473;51.552;6.716;2022-09-03T09:14:45;27.70;1.00
12817;DHT22;6473;51.552;6.716;2022-09-03T09:17:28;28.10;1.00
12817;DHT22;6473;51.552;6.716;2022-09-03T09:20:05;28.20;1.00
12817;DHT22;6473;51.552;6.716;2022-09-03T09:22:37;28.00;1.00
12817;DHT22;6473;51.552;6.716;2022-09-03T09:25:09;27.90;1.00
12817;DHT22;6473;51.552;6.716;2022-09-03T09:27:43;27.40;1.00
12817;DHT22;6473;51.552;6.716;2022-09-03T09:30:13;28.00;1.00
12817;DHT22;6473;51.552;6.716;2022-09-03T09:32:44;27.70;1.00
12817;DHT22;6473;51.552;6.716;2022-09-03T09:35:14;27.80;1.00
12817;DHT22;6473;51.552;6.716;2022-09-03T09:37:49;27.50;1.00
12817;DHT22;6473;51.552;6.716;2022-09-03T09:40:29;27.20;1.00
12817;DHT22;6473;51.552;6.716;2022-09-03T09:43:10;27.90;1.00
12817;DHT22;6473;51.552;6.716;2022-09-03T09:45:39;28.80;1.00
12817;DHT22;6473;51.552;6.716;2022-09-03T09:48:14;28.70;1.00
12817;DHT22;6473;51.552;6.716;2022-09-03T09:50:42;28.60;1.00
12817;DHT22;6473;51.552;6.716;2022-09-03T09:53:10;28.90;1.00
12817;DHT22;6473;51.552;6.716;2022-09-03T09:55:54;28.40;1.00
12817;DHT22;6473;51.552;6.716;2022-09-03T09:58:24;28.70;1.00
12817;DHT22;6473;51.552;6.716;2022-09-03T10:00:57;29.40;1.00
12817;DHT22;6473;51.552;6.716;2022-09-03T10:03:30;29.40;1.00
12817;DHT22;6473;51.552;6.716;2022-09-03T10:06:05;29.00;1.00
12817;DHT22;6473;51.552;6.716;2022-09-03T10:09:06;28.10;1.00
12817;DHT22;6473;51.552;6.716;2022-09-03T10:11:34;28.10;1.00
12817;DHT22;6473;51.552;6.716;2022-09-03T10:14:09;27.50;1.00
12817;DHT22;6473;51.552;6.716;2022-09-03T10:16:42;27.80;1.00
12817;DHT22;6473;51.552;6.716;2022-09-03T10:19:18;27.20;1.00
12817;DHT22;6473;51.552;6.716;2022-09-03T10:21:52;26.70;1.00
12817;DHT22;6473;51.552;6.716;2022-09-03T10:24:45;26.60;1.00
12817;DHT22;6473;51.552;6.716;2022-09-03T10:27:15;26.70;1.00
12817;DHT22;6473;51.552;6.716;2022-09-03T10:29:43;26.80;1.00
12817;DHT22;6473;51.552;6.716;2022-09-03T10:32:19;27.00;1.00
12817;DHT22;6473;51.552;6.716;2022-09-03T10:34:56;26.80;1.00
12817;DHT22;6473;51.552;6.716;2022-09-03T10:37:36;26.20;1.00
12817;DHT22;6473;51.552;6.716;2022-09-03T10:40:28;26.50;1.00
12817;DHT22;6473;51.552;6.716;2022-09-03T10:43:18;26.50;1.00
12817;DHT22;6473;51.552;6.716;2022-09-03T10:46:55;26.30;1.00
12817;DHT22;6473;51.552;6.716;2022-09-03T10:49:57;27.00;1.00
12817;DHT22;6473;51.552;6.716;2022-09-03T10:52:38;26.90;1.00
12817;DHT22;6473;51.552;6.716;2022-09-03T10:55:21;27.20;1.00
12817;DHT22;6473;51.552;6.716;2022-09-03T11:00:56;27.60;1.00
12817;DHT22;6473;51.552;6.716;2022-09-03T11:03:41;27.70;1.00
12817;DHT22;6473;51.552;6.716;2022-09-03T11:09:25;27.10;1.00
12817;DHT22;6473;51.552;6.716;2022-09-03T11:12:01;26.50;1.00
12817;DHT22;6473;51.552;6.716;2022-09-03T11:14:39;26.60;1.00
12817;DHT22;6473;51.552;6.716;2022-09-03T11:17:12;26.70;1.00
12817;DHT22;6473;51.552;6.716;2022-09-03T11:19:46;27.10;1.00
12817;DHT22;6473;51.552;6.716;2022-09-03T11:22:18;27.10;1.00
12817;DHT22;6473;51.552;6.716;2022-09-03T11:24:53;27.30;1.00
12817;DHT22;6473;51.552;6.716;2022-09-03T11:27:34;27.60;1.00
12817;DHT22;6473;51.552;6.716;2022-09-03T11:30:05;27.20;1.00
12817;DHT22;6473;51.552;6.716;2022-09-03T11:32:44;27.10;1.00
12817;DHT22;6473;51.552;6.716;2022-09-03T11:35:59;27.10;1.00
12817;DHT22;6473;51.552;6.716;2022-09-03T11:38:48;27.60;1.00
12817;DHT22;6473;51.552;6.716;2022-09-03T11:41:23;27.40;1.00
12817;DHT22;6473;51.552;6.716;2022-09-03T11:43:52;26.90;1.00
12817;DHT22;6473;51.552;6.716;2022-09-03T11:46:29;27.20;1.00
12817;DHT22;6473;51.552;6.716;2022-09-03T11:49:09;27.20;1.00
12817;DHT22;6473;51.552;6.716;2022-09-03T11:51:38;26.80;1.00
12817;DHT22;6473;51.552;6.716;2022-09-03T11:54:24;26.60;1.00
12817;DHT22;6473;51.552;6.716;2022-09-03T11:57:38;26.60;1.00
12817;DHT22;6473;51.552;6.716;2022-09-03T12:00:34;26.60;1.00
12817;DHT22;6473;51.552;6.716;2022-09-03T12:03:24;26.90;1.00
12817;DHT22;6473;51.552;6.716;2022-09-03T12:06:17;27.00;1.00
12817;DHT22;6473;51.552;6.716;2022-09-03T12:12:34;27.00;1.00
12817;DHT22;6473;51.552;6.716;2022-09-03T12:15:30;27.00;1.00
12817;DHT22;6473;51.552;6.716;2022-09-03T12:18:44;26.90;1.00
12817;DHT22;6473;51.552;6.716;2022-09-03T12:21:16;26.90;1.00
12817;DHT22;6473;51.552;6.716;2022-09-03T12:23:51;26.80;1.00
12817;DHT22;6473;51.552;6.716;2022-09-03T12:26:22;26.90;1.00
12817;DHT22;6473;51.552;6.716;2022-09-03T12:32:12;27.20;1.00
12817;DHT22;6473;51.552;6.716;2022-09-03T12:34:45;27.20;1.00
12817;DHT22;6473;51.552;6.716;2022-09-03T12:37:19;27.00;1.00
12817;DHT22;6473;51.552;6.716;2022-09-03T12:40:14;27.10;1.00
12817;DHT22;6473;51.552;6.716;2022-09-03T12:43:11;26.90;1.00
12817;DHT22;6473;51.552;6.716;2022-09-03T12:46:22;27.20;1.00
12817;DHT22;6473;51.552;6.716;2022-09-03T12:48:57;26.60;1.00
12817;DHT22;6473;51.552;6.716;2022-09-03T12:54:53;26.80;1.00
12817;DHT22;6473;51.552;6.716;2022-09-03T12:57:56;26.90;1.00
12817;DHT22;6473;51.552;6.716;2022-09-03T13:00:28;26.90;1.00
12817;DHT22;6473;51.552;6.716;2022-09-03T13:03:01;27.10;1.00
12817;DHT22;6473;51.552;6.716;2022-09-03T13:05:41;27.10;1.00
12817;DHT22;6473;51.552;6.716;2022-09-03T13:08:23;27.10;1.00
12817;DHT22;6473;51.552;6.716;2022-09-03T13:10:53;27.10;1.00
12817;DHT22;6473;51.552;6.716;2022-09-03T13:13:25;27.50;1.00
12817;DHT22;6473;51.552;6.716;2022-09-03T13:16:15;27.90;1.00
12817;DHT22;6473;51.552;6.716;2022-09-03T13:18:55;27.80;1.00
12817;DHT22;6473;51.552;6.716;2022-09-03T13:21:44;27.70;1.00
12817;DHT22;6473;51.552;6.716;2022-09-03T13:24:41;27.50;1.00
12817;DHT22;6473;51.552;6.716;2022-09-03T13:27:19;27.70;1.00
12817;DHT22;6473;51.552;6.716;2022-09-03T13:30:02;27.70;1.00
12817;DHT22;6473;51.552;6.716;2022-09-03T13:32:40;27.70;1.00
12817;DHT22;6473;51.552;6.716;2022-09-03T13:35:16;27.70;1.00
12817;DHT22;6473;51.552;6.716;2022-09-03T13:37:53;27.40;1.00
12817;DHT22;6473;51.552;6.716;2022-09-03T13:40:24;27.60;1.00
12817;DHT22;6473;51.552;6.716;2022-09-03T13:42:57;27.80;1.00
12817;DHT22;6473;51.552;6.716;2022-09-03T13:45:31;27.80;1.00
12817;DHT22;6473;51.552;6.716;2022-09-03T13:48:07;27.40;1.00
12817;DHT22;6473;51.552;6.716;2022-09-03T13:51:05;27.30;1.00
12817;DHT22;6473;51.552;6.716;2022-09-03T13:53:43;27.30;1.00
12817;DHT22;6473;51.552;6.716;2022-09-03T13:56:21;27.30;1.00
12817;DHT22;6473;51.552;6.716;2022-09-03T13:58:55;27.60;1.00
12817;DHT22;6473;51.552;6.716;2022-09-03T14:04:26;27.70;1.00
12817;DHT22;6473;51.552;6.716;2022-09-03T14:07:02;27.80;1.00
12817;DHT22;6473;51.552;6.716;2022-09-03T14:09:37;27.80;1.00
12817;DHT22;6473;51.552;6.716;2022-09-03T14:12:13;27.80;1.00
12817;DHT22;6473;51.552;6.716;2022-09-03T14:14:57;27.60;1.00
12817;DHT22;6473;51.552;6.716;2022-09-03T14:17:39;27.60;1.00
12817;DHT22;6473;51.552;6.716;2022-09-03T14:20:17;27.20;1.00
12817;DHT22;6473;51.552;6.716;2022-09-03T14:22:52;27.30;1.00
12817;DHT22;6473;51.552;6.716;2022-09-03T14:28:13;27.20;1.00
12817;DHT22;6473;51.552;6.716;2022-09-03T14:30:47;27.20;1.00
12817;DHT22;6473;51.552;6.716;2022-09-03T14:33:19;27.50;1.00
12817;DHT22;6473;51.552;6.716;2022-09-03T14:36:09;27.50;1.00
12817;DHT22;6473;51.552;6.716;2022-09-03T14:39:02;27.60;1.00
12817;DHT22;6473;51.552;6.716;2022-09-03T14:41:45;27.80;1.00
12817;DHT22;6473;51.552;6.716;2022-09-03T14:47:26;27.70;1.00
12817;DHT22;6473;51.552;6.716;2022-09-03T14:50:06;27.90;1.00
12817;DHT22;6473;51.552;6.716;2022-09-03T14:55:42;27.80;1.00
12817;DHT22;6473;51.552;6.716;2022-09-03T14:58:42;27.60;1.00
12817;DHT22;6473;51.552;6.716;2022-09-03T15:01:39;27.70;1.00
12817;DHT22;6473;51.552;6.716;2022-09-03T15:07:13;27.80;1.00
12817;DHT22;6473;51.552;6.716;2022-09-03T15:09:50;27.40;1.00
12817;DHT22;6473;51.552;6.716;2022-09-03T15:12:24;27.20;1.00
12817;DHT22;6473;51.552;6.716;2022-09-03T15:14:56;27.00;1.00
12817;DHT22;6473;51.552;6.716;2022-09-03T15:17:41;27.20;1.00
12817;DHT22;6473;51.552;6.716;2022-09-03T15:20:25;27.60;1.00
12817;DHT22;6473;51.552;6.716;2022-09-03T15:23:19;27.50;1.00
12817;DHT22;6473;51.552;6.716;2022-09-03T15:26:19;27.10;1.00
12817;DHT22;6473;51.552;6.716;2022-09-03T15:29:19;27.40;1.00
12817;DHT22;6473;51.552;6.716;2022-09-03T15:31:53;27.40;1.00
12817;DHT22;6473;51.552;6.716;2022-09-03T15:34:39;27.50;1.00
12817;DHT22;6473;51.552;6.716;2022-09-03T15:37:17;27.60;1.00
12817;DHT22;6473;51.552;6.716;2022-09-03T15:39:58;27.80;1.00
12817;DHT22;6473;51.552;6.716;2022-09-03T15:42:29;27.80;1.00
12817;DHT22;6473;51.552;6.716;2022-09-03T15:45:13;27.40;1.00
12817;DHT22;6473;51.552;6.716;2022-09-03T15:50:34;27.40;1.00
12817;DHT22;6473;51.552;6.716;2022-09-03T15:53:20;27.30;1.00
12817;DHT22;6473;51.552;6.716;2022-09-03T15:56:01;27.50;1.00
12817;DHT22;6473;51.552;6.716;2022-09-03T15:58:38;27.20;1.00
12817;DHT22;6473;51.552;6.716;2022-09-03T16:01:18;27.20;1.00
12817;DHT22;6473;51.552;6.716;2022-09-03T16:03:57;26.90;1.00
12817;DHT22;6473;51.552;6.716;2022-09-03T16:06:58;26.80;1.00
12817;DHT22;6473;51.552;6.716;2022-09-03T16:09:34;26.80;1.00
12817;DHT22;6473;51.552;6.716;2022-09-03T16:12:13;26.90;1.00
12817;DHT22;6473;51.552;6.716;2022-09-03T16:14:48;26.60;1.00
12817;DHT22;6473;51.552;6.716;2022-09-03T16:17:25;26.80;1.00
12817;DHT22;6473;51.552;6.716;2022-09-03T16:20:03;26.70;1.00
12817;DHT22;6473;51.552;6.716;2022-09-03T16:22:39;26.70;1.00
12817;DHT22;6473;51.552;6.716;2022-09-03T16:25:12;26.70;1.00
12817;DHT22;6473;51.552;6.716;2022-09-03T16:27:51;26.70;1.00
12817;DHT22;6473;51.552;6.716;2022-09-03T16:30:32;26.60;1.00
12817;DHT22;6473;51.552;6.716;2022-09-03T16:33:12;26.60;1.00
12817;DHT22;6473;51.552;6.716;2022-09-03T16:36:03;26.60;1.00
12817;DHT22;6473;51.552;6.716;2022-09-03T16:38:42;26.50;1.00
12817;DHT22;6473;51.552;6.716;2022-09-03T16:41:21;26.50;1.00
12817;DHT22;6473;51.552;6.716;2022-09-03T16:44:01;26.40;1.00
12817;DHT22;6473;51.552;6.716;2022-09-03T16:46:39;26.40;1.00
12817;DHT22;6473;51.552;6.716;2022-09-03T16:49:32;26.30;1.00
12817;DHT22;6473;51.552;6.716;2022-09-03T16:52:08;26.40;1.00
12817;DHT22;6473;51.552;6.716;2022-09-03T16:54:50;26.50;1.00
12817;DHT22;6473;51.552;6.716;2022-09-03T16:57:31;26.50;1.00
12817;DHT22;6473;51.552;6.716;2022-09-03T17:00:09;26.50;1.00
12817;DHT22;6473;51.552;6.716;2022-09-03T17:02:49;26.40;1.00
12817;DHT22;6473;51.552;6.716;2022-09-03T17:05:43;26.30;1.00
12817;DHT22;6473;51.552;6.716;2022-09-03T17:08:19;26.30;1.00
12817;DHT22;6473;51.552;6.716;2022-09-03T17:10:58;26.10;1.00
12817;DHT22;6473;51.552;6.716;2022-09-03T17:13:45;26.10;1.00
12817;DHT22;6473;51.552;6.716;2022-09-03T17:16:28;25.90;1.00
12817;DHT22;6473;51.552;6.716;2022-09-03T17:19:13;25.90;1.00
12817;DHT22;6473;51.552;6.716;2022-09-03T17:21:55;25.80;1.00
12817;DHT22;6473;51.552;6.716;2022-09-03T17:24:41;25.80;1.00
12817;DHT22;6473;51.552;6.716;2022-09-03T17:27:33;25.70;1.00
12817;DHT22;6473;51.552;6.716;2022-09-03T17:30:07;25.70;1.00
12817;DHT22;6473;51.552;6.716;2022-09-03T17:33:07;25.70;1.00
12817;DHT22;6473;51.552;6.716;2022-09-03T17:36:05;25.60;1.00
12817;DHT22;6473;51.552;6.716;2022-09-03T17:41:41;25.50;1.00